Contact Info

Augusta Flying Club, Inc

KDNL 221153Z AUTO 08006KT 10SM BKN033 BKN045 16/11 A3031 RMK AO2 SLP259 T01560111 10172 20150 53010


TAF KDNL 221120Z 2212/2312 10006KT P6SM OVC070 FM221600 12012KT P6SM OVC050 TEMPO 2219/2223 5SM -SHRA FM222300 12012KT 5SM -RA OVC015

info@augustaflyingclub.com

Send us a message